createdAt,value
2017-11-04T00:00:12.626Z,92.1
2017-11-04T00:01:14.324Z,92.5
2017-11-04T00:02:16.041Z,92.0
2017-11-04T00:03:17.716Z,91.9
2017-11-04T00:04:19.499Z,92.4
2017-11-04T00:05:21.269Z,92.5
2017-11-04T00:06:22.954Z,92.0
2017-11-04T00:07:24.628Z,92.2
2017-11-04T00:08:26.295Z,91.9
2017-11-04T00:09:28.400Z,92.4
2017-11-04T00:10:30.071Z,91.9
2017-11-04T00:11:31.751Z,91.7
2017-11-04T00:12:33.404Z,91.7
2017-11-04T00:13:35.061Z,92.0
2017-11-04T00:14:36.852Z,92.0
2017-11-04T00:15:38.694Z,91.9
2017-11-04T00:16:40.504Z,91.9
2017-11-04T00:17:42.538Z,91.8
2017-11-04T00:18:45.247Z,91.9
2017-11-04T00:19:46.903Z,91.7
2017-11-04T00:20:48.554Z,92.1
2017-11-04T00:21:50.213Z,91.7
2017-11-04T00:22:51.864Z,91.6
2017-11-04T00:23:53.537Z,92.3
2017-11-04T00:24:56.463Z,91.7
2017-11-04T00:25:59.453Z,92.2
2017-11-04T00:27:06.406Z,91.7
2017-11-04T00:28:08.262Z,92.3
2017-11-04T00:29:09.991Z,91.7
2017-11-04T00:30:11.695Z,92.4
2017-11-04T00:31:13.531Z,91.6
2017-11-04T00:32:15.296Z,92.5
2017-11-04T00:33:26.942Z,92.3
2017-11-04T00:34:28.346Z,92.1
2017-11-04T00:35:30.049Z,92.0
2017-11-04T00:36:31.759Z,92.2
2017-11-04T00:37:33.458Z,91.7
2017-11-04T00:38:35.172Z,91.9
2017-11-04T00:39:39.064Z,92.0
2017-11-04T00:40:40.734Z,92.0
2017-11-04T00:41:42.456Z,91.7
2017-11-04T00:42:44.173Z,91.1
2017-11-04T00:43:49.628Z,91.3
2017-11-04T00:44:51.796Z,91.3
2017-11-04T00:45:53.439Z,90.9
2017-11-04T00:46:55.119Z,91.1
2017-11-04T00:47:57.785Z,90.9
2017-11-04T00:48:59.557Z,91.1
2017-11-04T00:50:01.309Z,90.7
2017-11-04T00:51:04.824Z,90.4
2017-11-04T00:52:06.620Z,90.2
2017-11-04T00:53:09.659Z,90.4
2017-11-04T00:54:11.404Z,90.1
2017-11-04T00:55:13.483Z,90.4
2017-11-04T00:56:15.217Z,90.4
2017-11-04T00:57:18.419Z,90.3
2017-11-04T00:58:23.314Z,90.5
2017-11-04T00:59:24.295Z,89.8
2017-11-04T01:00:26.200Z,89.8
2017-11-04T01:01:29.468Z,90.1
2017-11-04T01:02:31.147Z,90.0
2017-11-04T01:03:32.852Z,90.0
2017-11-04T01:04:36.364Z,90.0
2017-11-04T01:05:39.794Z,89.5
2017-11-04T01:06:41.501Z,89.3
2017-11-04T01:07:43.214Z,89.4
2017-11-04T01:08:44.932Z,89.2
2017-11-04T01:09:46.619Z,89.2
2017-11-04T01:10:48.627Z,89.2
2017-11-04T01:11:50.447Z,89.3
2017-11-04T01:12:52.168Z,89.0
2017-11-04T01:13:53.898Z,89.3
2017-11-04T01:14:55.604Z,89.3
2017-11-04T01:15:57.334Z,89.1
2017-11-04T01:16:59.100Z,89.5
2017-11-04T01:18:00.995Z,89.7
2017-11-04T01:19:02.703Z,89.7
2017-11-04T01:20:04.457Z,89.5
2017-11-04T01:21:06.192Z,89.1
2017-11-04T01:22:07.884Z,89.8
2017-11-04T01:23:09.984Z,89.0
2017-11-04T01:24:13.109Z,88.9
2017-11-04T01:25:14.864Z,89.3
2017-11-04T01:26:16.566Z,89.1
2017-11-04T01:27:18.283Z,89.3
2017-11-04T01:28:20.033Z,89.4
2017-11-04T01:29:21.725Z,89.7
2017-11-04T01:30:23.432Z,90.2
2017-11-04T01:31:25.194Z,90.0
2017-11-04T01:32:26.952Z,89.8
2017-11-04T01:33:28.672Z,90.0
2017-11-04T01:34:30.336Z,89.8
2017-11-04T01:35:32.002Z,89.4
2017-11-04T01:36:33.675Z,89.9
2017-11-04T01:37:35.333Z,89.9
2017-11-04T01:38:36.980Z,90.0
2017-11-04T01:39:38.639Z,89.5
2017-11-04T01:40:40.320Z,89.4
2017-11-04T01:41:41.974Z,89.3
2017-11-04T01:42:43.626Z,89.3
2017-11-04T01:43:45.272Z,89.9
2017-11-04T01:44:46.933Z,89.4
2017-11-04T01:45:48.585Z,89.4
2017-11-04T01:46:50.239Z,89.9
2017-11-04T01:47:51.885Z,89.7
2017-11-04T01:48:53.542Z,89.5
2017-11-04T01:49:58.108Z,89.9
2017-11-04T01:50:59.460Z,89.7
2017-11-04T01:52:01.109Z,89.7
2017-11-04T01:53:02.796Z,89.8
2017-11-04T01:54:04.408Z,89.8
2017-11-04T01:55:06.069Z,90.1
2017-11-04T01:56:07.709Z,89.8
2017-11-04T01:57:09.363Z,89.6
2017-11-04T01:58:11.012Z,89.4
2017-11-04T01:59:12.671Z,89.9
2017-11-04T02:00:14.376Z,89.6
2017-11-04T02:01:16.026Z,89.3
2017-11-04T02:02:17.676Z,89.3
2017-11-04T02:03:19.328Z,89.4
2017-11-04T02:04:20.992Z,88.9
2017-11-04T02:05:22.657Z,89.1
2017-11-04T02:06:24.309Z,89.0
2017-11-04T02:07:25.962Z,88.9
2017-11-04T02:08:27.602Z,89.1
2017-11-04T02:09:29.259Z,89.1
2017-11-04T02:10:30.901Z,89.4
2017-11-04T02:11:32.551Z,89.1
2017-11-04T02:12:34.201Z,89.3
2017-11-04T02:13:35.859Z,89.3
2017-11-04T02:14:37.505Z,89.0
2017-11-04T02:15:39.225Z,89.4
2017-11-04T02:16:40.874Z,89.1
2017-11-04T02:17:42.528Z,89.2
2017-11-04T02:18:44.190Z,89.3
2017-11-04T02:19:45.845Z,89.2
2017-11-04T02:20:47.490Z,89.3
2017-11-04T02:21:49.154Z,89.2
2017-11-04T02:22:50.835Z,89.3
2017-11-04T02:23:52.488Z,88.9
2017-11-04T02:24:54.137Z,89.0
2017-11-04T02:25:55.789Z,88.7
2017-11-04T02:26:57.436Z,88.7
2017-11-04T02:27:59.091Z,88.6
2017-11-04T02:29:01.602Z,88.6
2017-11-04T02:30:03.256Z,88.6
2017-11-04T02:31:04.916Z,88.7
2017-11-04T02:32:06.559Z,88.4
2017-11-04T02:33:08.209Z,87.8
2017-11-04T02:34:09.850Z,88.0
2017-11-04T02:35:11.503Z,88.0
2017-11-04T02:36:13.158Z,87.8
2017-11-04T02:37:14.807Z,87.7
2017-11-04T02:38:16.464Z,87.9
2017-11-04T02:39:18.103Z,87.9
2017-11-04T02:40:19.780Z,87.5
2017-11-04T02:41:21.437Z,87.4
2017-11-04T02:42:23.085Z,87.1
2017-11-04T02:43:24.731Z,87.1
2017-11-04T02:44:26.423Z,87.2
2017-11-04T02:45:28.076Z,87.4
2017-11-04T02:46:29.719Z,86.9
2017-11-04T02:47:31.366Z,86.5
2017-11-04T02:48:33.037Z,86.8
2017-11-04T02:49:34.694Z,86.4
2017-11-04T02:50:36.348Z,86.8
2017-11-04T02:51:37.997Z,86.1
2017-11-04T02:52:39.653Z,85.8
2017-11-04T02:53:41.315Z,85.9
2017-11-04T02:54:43.259Z,85.8
2017-11-04T03:00:59.977Z,84.5
2017-11-04T03:02:01.623Z,85.0
2017-11-04T03:03:03.320Z,84.8
2017-11-04T03:04:05.000Z,84.8
2017-11-04T03:05:06.642Z,85.1
2017-11-04T03:06:08.823Z,85.1
2017-11-04T03:07:10.478Z,84.6
2017-11-04T03:08:12.130Z,84.9
2017-11-04T03:09:13.772Z,84.4
2017-11-04T03:10:15.990Z,83.9
2017-11-04T03:11:17.739Z,84.1
2017-11-04T03:12:19.392Z,84.0
2017-11-04T03:13:21.069Z,83.9
2017-11-04T03:14:22.723Z,83.7
2017-11-04T03:15:24.411Z,83.4
2017-11-04T03:16:26.013Z,83.7
2017-11-04T03:17:27.654Z,83.0
2017-11-04T03:18:29.299Z,83.0
2017-11-04T03:19:30.946Z,82.9
2017-11-04T03:20:32.615Z,83.1
2017-11-04T03:21:34.274Z,83.1
2017-11-04T03:22:35.923Z,83.2
2017-11-04T03:23:37.570Z,82.6
2017-11-04T03:24:39.217Z,83.0
2017-11-04T03:25:40.868Z,83.0
2017-11-04T03:26:42.518Z,82.8
2017-11-04T03:27:44.170Z,82.6
2017-11-04T03:28:45.814Z,83.0
2017-11-04T03:29:47.542Z,82.9
2017-11-04T03:30:49.187Z,83.7
2017-11-04T03:31:50.838Z,83.0
2017-11-04T03:32:52.491Z,83.5
2017-11-04T03:33:54.138Z,83.4
2017-11-04T03:34:55.788Z,83.5
2017-11-04T03:35:57.437Z,83.1
2017-11-04T03:36:59.101Z,83.0
2017-11-04T03:38:00.727Z,83.6
2017-11-04T03:39:02.421Z,83.0
2017-11-04T03:40:04.065Z,83.3
2017-11-04T03:41:05.711Z,83.4
2017-11-04T03:42:07.359Z,83.4
2017-11-04T03:43:09.002Z,83.2
2017-11-04T03:44:10.654Z,83.4
2017-11-04T03:45:12.304Z,83.6
2017-11-04T03:46:13.946Z,83.1
2017-11-04T03:47:15.605Z,83.9
2017-11-04T03:48:17.256Z,84.0
2017-11-04T03:49:18.917Z,83.5
2017-11-04T03:50:20.573Z,83.9
2017-11-04T03:51:22.225Z,84.2
2017-11-04T03:52:23.875Z,84.0
2017-11-04T03:53:25.526Z,83.9
2017-11-04T03:54:27.173Z,84.4
2017-11-04T03:55:28.829Z,84.5
2017-11-04T03:56:30.485Z,84.4
2017-11-04T03:57:32.134Z,84.7
2017-11-04T03:58:33.781Z,85.1
2017-11-04T03:59:35.428Z,85.1
2017-11-04T04:00:37.108Z,85.1
2017-11-04T04:01:38.739Z,85.6
2017-11-04T04:02:40.390Z,85.4
2017-11-04T04:03:42.081Z,85.7
2017-11-04T04:04:43.738Z,85.7
2017-11-04T04:05:45.395Z,85.9
2017-11-04T04:06:47.047Z,85.8
2017-11-04T04:07:48.700Z,86.3
2017-11-04T04:08:50.357Z,86.3
2017-11-04T04:09:52.016Z,86.1
2017-11-04T04:10:53.679Z,86.3
2017-11-04T04:11:55.333Z,86.8
2017-11-04T04:12:56.985Z,87.1
2017-11-04T04:13:58.627Z,87.2
2017-11-04T04:15:00.280Z,87.5
2017-11-04T04:16:01.936Z,87.9
2017-11-04T04:17:03.594Z,87.0
2017-11-04T04:18:05.245Z,87.5
2017-11-04T04:19:06.909Z,87.6
2017-11-04T04:20:08.560Z,87.5
2017-11-04T04:21:10.220Z,87.5
2017-11-04T04:22:11.867Z,87.6
2017-11-04T04:23:13.513Z,87.0
2017-11-04T04:24:15.162Z,87.0
2017-11-04T04:25:16.812Z,87.2
2017-11-04T04:26:18.465Z,86.9
2017-11-04T04:27:20.133Z,87.1
2017-11-04T04:28:21.789Z,87.1
2017-11-04T04:29:23.450Z,86.9
2017-11-04T04:30:25.100Z,86.9
2017-11-04T04:31:26.752Z,86.9
2017-11-04T04:32:28.405Z,87.0
2017-11-04T04:33:30.059Z,87.0
2017-11-04T04:34:31.714Z,87.1
2017-11-04T04:35:33.372Z,87.0
2017-11-04T04:36:35.028Z,87.0
2017-11-04T04:37:36.677Z,87.0
2017-11-04T04:38:38.332Z,87.1
2017-11-04T04:39:39.977Z,87.0
2017-11-04T04:40:41.625Z,86.6
2017-11-04T04:41:43.279Z,87.1
2017-11-04T04:42:44.927Z,86.9
2017-11-04T04:43:46.573Z,86.9
2017-11-04T04:44:48.229Z,87.0
2017-11-04T04:45:49.880Z,86.5
2017-11-04T04:46:51.530Z,86.4
2017-11-04T04:47:53.175Z,87.3
2017-11-04T04:48:54.832Z,86.3
2017-11-04T04:49:56.472Z,86.4
2017-11-04T04:50:58.121Z,86.6
2017-11-04T04:51:59.768Z,86.1
2017-11-04T04:53:01.414Z,86.1
2017-11-04T04:54:03.073Z,85.3
2017-11-04T04:55:04.736Z,85.4
2017-11-04T04:56:06.399Z,84.9
2017-11-04T04:57:08.054Z,84.5
2017-11-04T04:58:09.712Z,84.1
2017-11-04T04:59:11.359Z,83.9
2017-11-04T05:00:13.020Z,83.4
2017-11-04T05:01:14.670Z,83.2
2017-11-04T05:02:16.328Z,82.6
2017-11-04T05:03:17.979Z,82.2
2017-11-04T05:04:19.624Z,81.3
2017-11-04T05:05:21.273Z,80.9
2017-11-04T05:06:22.915Z,80.8
2017-11-04T05:07:24.570Z,80.7
2017-11-04T05:08:26.226Z,80.9
2017-11-04T05:09:27.873Z,81.9
2017-11-04T05:10:29.531Z,83.0
2017-11-04T05:11:31.183Z,84.3
2017-11-04T05:12:32.837Z,84.5
2017-11-04T05:13:34.479Z,82.8
2017-11-04T05:14:36.133Z,83.1
2017-11-04T05:15:37.785Z,84.3
2017-11-04T05:16:39.454Z,83.4
2017-11-04T05:17:41.103Z,82.6
2017-11-04T05:18:42.751Z,83.3
2017-11-04T05:19:44.415Z,83.2
2017-11-04T05:20:46.521Z,83.7
2017-11-04T05:21:48.172Z,82.5
2017-11-04T05:22:49.813Z,82.9
2017-11-04T05:23:51.470Z,82.3
2017-11-04T05:24:53.122Z,81.9
2017-11-04T05:25:54.769Z,83.1
2017-11-04T05:26:56.439Z,85.4
2017-11-04T05:27:58.089Z,84.9
2017-11-04T05:28:59.744Z,84.3
2017-11-04T05:30:01.407Z,84.9
2017-11-04T05:31:03.058Z,84.1
2017-11-04T05:32:04.716Z,84.1
2017-11-04T05:33:06.375Z,85.6
2017-11-04T05:34:08.028Z,85.9
2017-11-04T05:35:09.677Z,84.9
2017-11-04T05:36:11.330Z,83.9
2017-11-04T05:37:12.978Z,84.9
2017-11-04T05:38:14.638Z,87.7
2017-11-04T05:39:16.322Z,89.5
2017-11-04T05:40:17.979Z,87.9
2017-11-04T05:41:19.627Z,90.0
2017-11-04T05:42:21.290Z,87.6
2017-11-04T05:43:22.933Z,87.1
2017-11-04T05:44:24.583Z,86.5
2017-11-04T05:45:26.238Z,86.9
2017-11-04T05:46:27.908Z,89.3
2017-11-04T05:47:29.564Z,88.4
2017-11-04T05:48:31.212Z,88.7
2017-11-04T05:49:32.857Z,87.7
2017-11-04T05:50:34.502Z,85.6
2017-11-04T05:51:36.149Z,86.6
2017-11-04T05:52:37.811Z,86.9
2017-11-04T05:53:39.465Z,86.6
2017-11-04T05:54:41.111Z,87.3
2017-11-04T05:55:42.764Z,86.6
2017-11-04T05:56:44.415Z,86.7
2017-11-04T05:57:46.059Z,87.6
2017-11-04T05:58:47.715Z,86.2
2017-11-04T05:59:49.372Z,87.3
2017-11-04T06:00:51.024Z,88.7
2017-11-04T06:01:52.678Z,86.6
2017-11-04T06:02:56.542Z,86.6
2017-11-04T06:03:58.192Z,88.5
2017-11-04T06:04:59.841Z,88.5
2017-11-04T06:06:01.492Z,86.0
2017-11-04T06:07:03.135Z,85.2
2017-11-04T06:08:04.796Z,86.0
2017-11-04T06:09:06.441Z,85.4
2017-11-04T06:10:08.096Z,84.9
2017-11-04T06:11:09.745Z,84.9
2017-11-04T06:12:11.414Z,86.4
2017-11-04T06:13:13.064Z,85.8
2017-11-04T06:14:14.718Z,86.8
2017-11-04T06:15:16.370Z,86.7
2017-11-04T06:16:18.022Z,86.1
2017-11-04T06:17:19.682Z,86.6
2017-11-04T06:18:21.324Z,85.5
2017-11-04T06:19:22.984Z,84.8
2017-11-04T06:20:24.639Z,85.9
2017-11-04T06:21:26.290Z,87.3
2017-11-04T06:22:27.969Z,87.7
2017-11-04T06:23:29.612Z,89.0
2017-11-04T06:24:31.268Z,88.4
2017-11-04T06:25:32.916Z,87.8
2017-11-04T06:26:34.572Z,87.6
2017-11-04T06:27:36.227Z,88.0
2017-11-04T06:28:37.902Z,89.2
2017-11-04T06:29:39.555Z,87.7
2017-11-04T06:30:41.204Z,87.2
2017-11-04T06:31:42.873Z,86.4
2017-11-04T06:32:44.518Z,85.8
2017-11-04T06:33:46.174Z,85.2
2017-11-04T06:34:47.832Z,86.0
2017-11-04T06:35:49.495Z,86.1
2017-11-04T06:36:51.162Z,86.0
2017-11-04T06:37:52.825Z,85.2
2017-11-04T06:38:54.479Z,84.6
2017-11-04T06:39:56.133Z,85.2
2017-11-04T06:40:57.786Z,84.2
2017-11-04T06:41:59.436Z,84.2
2017-11-04T06:43:01.095Z,84.1
2017-11-04T06:44:02.751Z,84.0
2017-11-04T06:45:04.405Z,84.1
2017-11-04T06:46:06.065Z,84.9
2017-11-04T06:47:07.720Z,85.7
2017-11-04T06:48:09.371Z,84.8
2017-11-04T06:49:11.037Z,85.0
2017-11-04T06:50:12.699Z,84.6
2017-11-04T06:51:14.349Z,85.4
2017-11-04T06:52:16.008Z,85.0
2017-11-04T06:53:17.656Z,84.1
2017-11-04T06:54:19.303Z,84.8
2017-11-04T06:55:20.955Z,86.1
2017-11-04T07:01:49.648Z,85.2
2017-11-04T07:02:51.301Z,85.4
2017-11-04T07:03:52.974Z,85.9
2017-11-04T07:04:54.632Z,86.0
2017-11-04T07:05:56.296Z,85.0
2017-11-04T07:06:57.945Z,86.5
2017-11-04T07:07:59.598Z,85.2
2017-11-04T07:09:01.262Z,84.6
2017-11-04T07:10:02.907Z,84.6
2017-11-04T07:11:04.573Z,87.9
2017-11-04T07:12:06.229Z,89.5
2017-11-04T07:13:07.873Z,88.1
2017-11-04T07:14:09.537Z,86.3
2017-11-04T07:15:11.208Z,84.8
2017-11-04T07:16:12.855Z,84.8
2017-11-04T07:17:14.507Z,85.9
2017-11-04T07:18:16.159Z,85.4
2017-11-04T07:19:17.818Z,88.9
2017-11-04T07:20:19.473Z,88.6
2017-11-04T07:21:21.229Z,87.9
2017-11-04T07:22:22.889Z,87.5
2017-11-04T07:23:24.549Z,86.5
2017-11-04T07:24:26.213Z,85.9
2017-11-04T07:25:27.869Z,89.0
2017-11-04T07:26:29.527Z,87.1
2017-11-04T07:27:31.195Z,86.1
2017-11-04T07:28:32.845Z,85.2
2017-11-04T07:29:34.503Z,84.0
2017-11-04T07:30:36.163Z,84.1
2017-11-04T07:31:37.813Z,88.9
2017-11-04T07:32:39.482Z,85.2
2017-11-04T07:33:41.118Z,83.5
2017-11-04T07:34:42.777Z,84.2
2017-11-04T07:35:44.445Z,86.4
2017-11-04T07:36:46.116Z,88.9
2017-11-04T07:37:47.793Z,86.2
2017-11-04T07:38:49.449Z,86.2
2017-11-04T07:39:51.104Z,84.7
2017-11-04T07:40:52.769Z,86.5
2017-11-04T07:41:54.435Z,89.4
2017-11-04T07:42:56.092Z,87.0
2017-11-04T07:43:57.749Z,87.4
2017-11-04T07:44:59.417Z,89.4
2017-11-04T07:46:01.072Z,88.6
2017-11-04T07:47:02.726Z,85.0
2017-11-04T07:48:04.386Z,90.7
2017-11-04T07:49:06.037Z,87.9
2017-11-04T07:50:07.704Z,87.9
2017-11-04T07:51:09.377Z,86.8
2017-11-04T07:52:11.040Z,88.0
2017-11-04T07:53:12.718Z,89.2
2017-11-04T07:54:14.382Z,87.0
2017-11-04T07:55:16.042Z,90.2
2017-11-04T07:56:17.697Z,92.0
2017-11-04T07:57:19.355Z,90.8
2017-11-04T07:58:21.015Z,87.8
2017-11-04T07:59:22.676Z,88.5
2017-11-04T08:00:24.327Z,92.2
2017-11-04T08:01:25.984Z,93.5
2017-11-04T08:02:27.651Z,93.4
2017-11-04T08:03:29.306Z,91.6
2017-11-04T08:04:30.968Z,90.5
2017-11-04T08:05:32.636Z,96.0
2017-11-04T08:06:34.298Z,94.4
2017-11-04T08:07:35.954Z,94.1
2017-11-04T08:08:37.618Z,93.2
2017-11-04T08:09:39.278Z,95.1
2017-11-04T08:10:40.945Z,94.9
2017-11-04T08:11:42.614Z,92.5
2017-11-04T08:12:44.274Z,90.4
2017-11-04T08:13:45.942Z,94.0
2017-11-04T08:14:47.601Z,93.5
2017-11-04T08:15:49.259Z,95.4
2017-11-04T08:16:50.914Z,93.7
2017-11-04T08:17:52.594Z,91.8
2017-11-04T08:18:54.248Z,91.9
2017-11-04T08:19:55.908Z,92.3
2017-11-04T08:20:57.570Z,93.7
2017-11-04T08:21:59.227Z,92.7
2017-11-04T08:23:00.898Z,93.4
2017-11-04T08:24:02.552Z,93.1
2017-11-04T08:25:04.218Z,91.9
2017-11-04T08:26:05.872Z,95.1
2017-11-04T08:27:07.533Z,93.7
2017-11-04T08:28:09.203Z,94.1
2017-11-04T08:29:10.868Z,93.5
2017-11-04T08:30:12.523Z,90.0
2017-11-04T08:31:14.234Z,94.2
2017-11-04T08:32:15.891Z,93.4
2017-11-04T08:33:17.550Z,90.8
2017-11-04T08:34:19.217Z,89.1
2017-11-04T08:35:20.880Z,90.5
2017-11-04T08:36:22.535Z,90.2
2017-11-04T08:37:24.214Z,89.4
2017-11-04T08:38:25.868Z,90.6
2017-11-04T08:39:27.527Z,94.0
2017-11-04T08:40:29.187Z,93.0
2017-11-04T08:41:30.837Z,94.8
2017-11-04T08:42:32.497Z,93.5
2017-11-04T08:43:34.159Z,92.8
2017-11-04T08:44:35.831Z,87.9
2017-11-04T08:45:37.476Z,92.2
2017-11-04T08:46:39.146Z,92.2
2017-11-04T08:47:40.873Z,93.0
2017-11-04T08:48:42.536Z,94.9
2017-11-04T08:49:44.205Z,95.4
2017-11-04T08:50:45.867Z,94.1
2017-11-04T08:51:47.526Z,94.1
2017-11-04T08:52:49.186Z,90.5
2017-11-04T08:53:50.860Z,92.0
2017-11-04T08:54:52.514Z,98.0
2017-11-04T08:55:54.170Z,91.0
2017-11-04T08:56:55.830Z,85.4
2017-11-04T08:57:57.551Z,90.3
2017-11-04T08:58:59.211Z,94.4
2017-11-04T09:00:00.876Z,89.1
2017-11-04T09:01:02.555Z,99.0
2017-11-04T09:02:04.217Z,96.2
2017-11-04T09:03:05.881Z,92.0
2017-11-04T09:04:07.535Z,87.3
2017-11-04T09:05:09.190Z,86.9
2017-11-04T09:06:10.850Z,85.3
2017-11-04T09:07:12.507Z,93.8
2017-11-04T09:08:14.168Z,87.3
2017-11-04T09:09:15.834Z,85.3
2017-11-04T09:10:17.521Z,82.6
2017-11-04T09:11:19.182Z,83.7
2017-11-04T09:12:20.839Z,88.4
2017-11-04T09:13:22.504Z,85.2
2017-11-04T09:14:24.168Z,86.1
2017-11-04T09:15:25.833Z,84.1
2017-11-04T09:16:27.550Z,89.9
2017-11-04T09:17:29.215Z,86.3
2017-11-04T09:18:30.873Z,89.6
2017-11-04T09:19:32.802Z,86.0
2017-11-04T09:20:34.447Z,85.6
2017-11-04T09:21:36.105Z,83.9
2017-11-04T09:22:37.773Z,82.2
2017-11-04T09:23:39.446Z,82.1
2017-11-04T09:24:41.111Z,80.8
2017-11-04T09:25:42.831Z,80.9
2017-11-04T09:26:44.509Z,82.9
2017-11-04T09:27:46.164Z,84.2
2017-11-04T09:28:47.817Z,85.5
2017-11-04T09:29:49.473Z,85.5
2017-11-04T09:30:51.132Z,82.6
2017-11-04T09:31:52.801Z,82.6
2017-11-04T09:32:54.458Z,80.8
2017-11-04T09:33:56.123Z,82.1
2017-11-04T09:34:57.791Z,80.2
2017-11-04T09:35:59.490Z,81.2
2017-11-04T09:37:01.157Z,80.7
2017-11-04T09:38:02.831Z,81.3
2017-11-04T09:39:04.499Z,82.4
2017-11-04T09:40:06.160Z,81.5
2017-11-04T09:41:07.831Z,82.5
2017-11-04T09:42:09.479Z,87.2
2017-11-04T09:43:11.144Z,86.0
2017-11-04T09:44:12.885Z,88.0
2017-11-04T09:45:14.560Z,87.6
2017-11-04T09:46:16.222Z,85.4
2017-11-04T09:47:17.888Z,86.4
2017-11-04T09:48:19.552Z,84.4
2017-11-04T09:49:21.199Z,85.3
2017-11-04T09:50:22.860Z,86.8
2017-11-04T09:51:24.517Z,90.2
2017-11-04T09:52:26.178Z,88.9
2017-11-04T09:53:27.852Z,86.8
2017-11-04T09:54:29.508Z,86.9
2017-11-04T09:55:31.176Z,88.4
2017-11-04T09:56:32.830Z,89.9
2017-11-04T09:57:34.504Z,87.6
2017-11-04T09:58:36.183Z,88.8
2017-11-04T09:59:39.571Z,89.7
2017-11-04T10:00:41.235Z,88.8
2017-11-04T10:01:43.572Z,92.7
2017-11-04T10:02:45.230Z,94.7
2017-11-04T10:03:46.923Z,94.7
2017-11-04T10:04:48.588Z,94.0
2017-11-04T10:05:50.257Z,92.9
2017-11-04T10:06:51.957Z,90.8
2017-11-04T10:07:53.626Z,92.6
2017-11-04T10:08:55.288Z,94.2
2017-11-04T10:09:56.951Z,98.7
2017-11-04T10:10:58.649Z,92.0
2017-11-04T10:12:00.315Z,94.2
2017-11-04T10:13:01.993Z,95.9
2017-11-04T10:14:03.666Z,96.1
2017-11-04T10:15:05.367Z,96.6
2017-11-04T10:16:07.034Z,96.2
2017-11-04T10:17:08.696Z,98.9
2017-11-04T10:18:10.349Z,97.6
2017-11-04T10:19:12.009Z,97.9
2017-11-04T10:20:13.692Z,100.0
2017-11-04T10:21:15.350Z,97.3
2017-11-04T10:22:17.025Z,98.7
2017-11-04T10:23:18.738Z,100.0
2017-11-04T10:24:20.391Z,100.0
2017-11-04T10:25:22.061Z,100.0
2017-11-04T10:26:23.731Z,100.0
2017-11-04T10:27:25.392Z,100.0
2017-11-04T10:28:27.058Z,100.0
2017-11-04T10:29:28.740Z,100.0
2017-11-04T10:30:30.419Z,100.0
2017-11-04T10:31:32.078Z,100.0
2017-11-04T10:32:33.750Z,100.0
2017-11-04T10:33:35.413Z,100.0
2017-11-04T10:34:37.078Z,100.0
2017-11-04T10:35:38.752Z,100.0
2017-11-04T10:36:40.431Z,100.0
2017-11-04T10:37:42.096Z,100.0
2017-11-04T10:38:43.755Z,100.0
2017-11-04T10:39:45.433Z,100.0
2017-11-04T10:40:47.105Z,100.0
2017-11-04T10:41:48.772Z,100.0
2017-11-04T10:42:50.486Z,100.0
2017-11-04T10:43:52.159Z,100.0
2017-11-04T10:44:53.885Z,100.0
2017-11-04T10:45:55.566Z,100.0
2017-11-04T10:46:57.238Z,100.0
2017-11-04T10:47:58.916Z,100.0
2017-11-04T10:49:00.592Z,100.0
2017-11-04T10:50:02.267Z,100.0
2017-11-04T10:51:03.941Z,100.0
2017-11-04T10:52:05.630Z,100.0
2017-11-04T10:53:07.290Z,100.0
2017-11-04T10:54:09.045Z,100.0
2017-11-04T10:55:10.724Z,100.0
2017-11-04T11:01:24.181Z,100.0
2017-11-04T11:02:25.844Z,100.0
2017-11-04T11:04:17.720Z,100.0
2017-11-04T11:05:19.381Z,100.0
2017-11-04T11:07:11.322Z,100.0
2017-11-04T11:08:12.975Z,100.0
2017-11-04T11:09:14.656Z,100.0
2017-11-04T11:10:16.323Z,100.0
2017-11-04T11:11:18.010Z,100.0
2017-11-04T11:12:19.684Z,100.0
2017-11-04T11:13:21.352Z,100.0
2017-11-04T11:14:23.042Z,100.0
2017-11-04T11:15:24.704Z,100.0
2017-11-04T11:16:26.371Z,100.0
2017-11-04T11:17:28.039Z,100.0
2017-11-04T11:18:29.706Z,100.0
2017-11-04T11:19:31.413Z,100.0
2017-11-04T11:20:33.087Z,100.0
2017-11-04T11:21:34.755Z,100.0
2017-11-04T11:22:36.422Z,100.0
2017-11-04T11:23:38.129Z,100.0
2017-11-04T11:24:39.799Z,100.0
2017-11-04T11:25:41.468Z,100.0
2017-11-04T11:26:43.144Z,100.0
2017-11-04T11:27:44.815Z,100.0
2017-11-04T11:28:46.485Z,100.0
2017-11-04T11:29:48.155Z,100.0
2017-11-04T11:30:49.828Z,100.0
2017-11-04T11:31:51.568Z,100.0
2017-11-04T11:32:53.246Z,100.0
2017-11-04T11:33:54.916Z,100.0
2017-11-04T11:34:56.593Z,100.0
2017-11-04T11:35:58.255Z,100.0
2017-11-04T11:36:59.916Z,100.0
2017-11-04T11:38:01.645Z,100.0
2017-11-04T11:39:03.338Z,100.0
2017-11-04T11:40:05.002Z,100.0
2017-11-04T11:41:06.666Z,100.0
2017-11-04T11:42:08.342Z,100.0
2017-11-04T11:43:10.018Z,100.0
2017-11-04T11:44:11.686Z,100.0
2017-11-04T11:45:13.360Z,100.0
2017-11-04T11:46:15.057Z,100.0
2017-11-04T11:47:16.728Z,100.0
2017-11-04T11:48:18.393Z,100.0
2017-11-04T11:49:20.062Z,100.0
2017-11-04T11:50:21.749Z,100.0
2017-11-04T11:51:23.419Z,100.0
2017-11-04T11:52:25.087Z,100.0
2017-11-04T11:53:26.807Z,100.0
2017-11-04T11:54:28.466Z,100.0
2017-11-04T11:55:30.140Z,100.0
2017-11-04T11:56:31.808Z,100.0
2017-11-04T11:57:33.482Z,100.0
2017-11-04T11:58:35.631Z,100.0
2017-11-04T11:59:37.331Z,100.0
2017-11-04T12:00:39.005Z,100.0
2017-11-04T12:01:40.668Z,100.0
2017-11-04T12:02:42.343Z,100.0
2017-11-04T12:03:44.027Z,100.0
2017-11-04T12:04:45.712Z,100.0
2017-11-04T12:05:48.792Z,100.0
2017-11-04T12:06:50.594Z,100.0
2017-11-04T12:07:52.260Z,100.0
2017-11-04T12:08:53.930Z,100.0
2017-11-04T12:09:55.599Z,100.0
2017-11-04T12:10:57.276Z,100.0
2017-11-04T12:11:58.993Z,100.0
2017-11-04T12:13:00.660Z,100.0
2017-11-04T12:14:02.323Z,100.0
2017-11-04T12:15:03.995Z,100.0
2017-11-04T12:16:05.681Z,100.0
2017-11-04T12:17:07.373Z,100.0
2017-11-04T12:18:09.053Z,100.0
2017-11-04T12:19:10.730Z,100.0
2017-11-04T12:20:12.403Z,100.0
2017-11-04T12:21:14.076Z,100.0
2017-11-04T12:22:15.747Z,100.0
2017-11-04T12:23:17.412Z,100.0
2017-11-04T12:24:19.079Z,100.0
2017-11-04T12:25:20.767Z,100.0
2017-11-04T12:26:22.442Z,100.0
2017-11-04T12:27:24.102Z,100.0
2017-11-04T12:28:25.772Z,100.0
2017-11-04T12:29:27.441Z,100.0
2017-11-04T12:30:29.120Z,100.0
2017-11-04T12:31:30.797Z,100.0
2017-11-04T12:32:32.480Z,100.0
2017-11-04T12:33:34.265Z,100.0
2017-11-04T12:34:35.931Z,100.0
2017-11-04T12:35:37.604Z,100.0
2017-11-04T12:36:39.272Z,100.0
2017-11-04T12:37:40.943Z,100.0
2017-11-04T12:38:42.606Z,100.0
2017-11-04T12:39:44.278Z,100.0
2017-11-04T12:40:46.011Z,100.0
2017-11-04T12:41:47.642Z,100.0
2017-11-04T12:42:49.312Z,100.0
2017-11-04T12:43:50.976Z,100.0
2017-11-04T12:44:52.674Z,100.0
2017-11-04T12:45:54.347Z,100.0
2017-11-04T12:46:56.028Z,100.0
2017-11-04T12:47:57.801Z,100.0
2017-11-04T12:48:59.597Z,100.0
2017-11-04T12:50:01.287Z,100.0
2017-11-04T12:51:03.021Z,100.0
2017-11-04T12:52:05.872Z,100.0
2017-11-04T12:53:07.536Z,100.0
2017-11-04T12:54:09.352Z,100.0
2017-11-04T12:55:11.051Z,100.0
2017-11-04T12:56:13.330Z,100.0
2017-11-04T12:57:15.701Z,100.0
2017-11-04T12:58:17.376Z,100.0
2017-11-04T12:59:19.054Z,100.0
2017-11-04T13:00:20.732Z,100.0
2017-11-04T13:01:22.405Z,100.0
2017-11-04T13:02:24.113Z,100.0
2017-11-04T13:03:25.777Z,100.0
2017-11-04T13:04:27.441Z,100.0
2017-11-04T13:05:29.116Z,100.0
2017-11-04T13:06:30.781Z,100.0
2017-11-04T13:07:32.447Z,100.0
2017-11-04T13:08:34.116Z,100.0
2017-11-04T13:09:35.804Z,100.0
2017-11-04T13:10:37.474Z,100.0
2017-11-04T13:11:39.143Z,100.0
2017-11-04T13:13:42.520Z,100.0
2017-11-04T13:14:44.916Z,100.0
2017-11-04T13:16:56.193Z,100.0
2017-11-04T13:17:57.874Z,100.0
2017-11-04T13:18:59.551Z,100.0
2017-11-04T13:20:01.219Z,100.0
2017-11-04T13:21:02.911Z,100.0
2017-11-04T13:22:05.550Z,100.0
2017-11-04T13:23:07.225Z,100.0
2017-11-04T13:24:08.922Z,100.0
2017-11-04T13:25:13.514Z,100.0
2017-11-04T13:26:15.354Z,100.0
2017-11-04T13:27:17.029Z,100.0
2017-11-04T13:28:18.721Z,100.0
2017-11-04T13:29:20.400Z,100.0
2017-11-04T13:30:22.075Z,100.0
2017-11-04T13:31:23.951Z,100.0
2017-11-04T13:32:27.040Z,100.0
2017-11-04T13:33:40.228Z,100.0
2017-11-04T13:34:41.927Z,100.0
2017-11-04T13:35:45.770Z,100.0
2017-11-04T13:36:47.444Z,100.0
2017-11-04T13:37:49.215Z,100.0
2017-11-04T13:38:51.388Z,100.0
2017-11-04T13:39:55.907Z,100.0
2017-11-04T13:40:59.011Z,100.0
2017-11-04T13:42:01.697Z,100.0
2017-11-04T13:43:03.395Z,100.0
2017-11-04T13:44:05.826Z,100.0
2017-11-04T13:45:07.553Z,100.0
2017-11-04T13:46:11.061Z,100.0
2017-11-04T13:47:12.744Z,100.0
2017-11-04T13:48:15.222Z,100.0
2017-11-04T13:49:16.958Z,100.0
2017-11-04T13:50:18.698Z,100.0
2017-11-04T13:51:21.360Z,100.0
2017-11-04T13:52:24.118Z,100.0
2017-11-04T13:53:27.419Z,100.0
2017-11-04T13:54:30.609Z,100.0